createdAt,value
2023-03-18T00:00:25.918Z,7.38
2023-03-18T00:03:12.349Z,8.70
2023-03-18T00:06:13.204Z,8.65
2023-03-18T00:08:58.690Z,8.30
2023-03-18T00:11:46.139Z,8.40
2023-03-18T00:14:31.803Z,8.48
2023-03-18T00:17:18.129Z,8.23
2023-03-18T00:20:06.869Z,7.85
2023-03-18T00:22:52.442Z,8.70
2023-03-18T00:25:39.020Z,8.25
2023-03-18T00:28:25.456Z,8.60
2023-03-18T00:31:13.769Z,8.80
2023-03-18T00:34:01.076Z,8.35
2023-03-18T00:36:50.844Z,8.65
2023-03-18T00:39:37.490Z,8.25
2023-03-18T00:42:23.904Z,7.90
2023-03-18T00:45:11.974Z,7.45
2023-03-18T00:47:57.652Z,8.20
2023-03-18T00:50:45.134Z,7.75
2023-03-18T00:53:31.298Z,8.50
2023-03-18T00:56:18.926Z,8.93
2023-03-18T00:59:06.239Z,8.35
2023-03-18T01:01:51.988Z,8.70
2023-03-18T01:04:38.547Z,8.35
2023-03-18T01:07:25.023Z,8.00
2023-03-18T01:10:12.842Z,8.95
2023-03-18T01:12:59.140Z,8.45
2023-03-18T01:15:44.559Z,8.23
2023-03-18T01:18:30.451Z,8.10
2023-03-18T01:21:17.121Z,7.45
2023-03-18T01:24:04.391Z,8.05
2023-03-18T01:26:50.664Z,7.63
2023-03-18T01:29:36.331Z,7.38
2023-03-18T01:32:22.362Z,8.90
2023-03-18T01:35:08.167Z,8.10
2023-03-18T01:37:53.628Z,7.32
2023-03-18T01:40:40.861Z,7.75
2023-03-18T01:43:33.985Z,7.65
2023-03-18T01:46:35.999Z,7.93
2023-03-18T01:49:30.452Z,7.40
2023-03-18T01:52:16.314Z,7.30
2023-03-18T01:55:08.410Z,7.70
2023-03-18T01:57:54.370Z,6.85
2023-03-18T02:00:51.703Z,7.35
2023-03-18T02:03:38.294Z,7.90
2023-03-18T02:06:25.010Z,8.13
2023-03-18T02:09:11.314Z,8.30
2023-03-18T02:11:58.060Z,10.63
2023-03-18T02:14:44.578Z,8.38
2023-03-18T02:17:34.431Z,8.90
2023-03-18T02:20:45.224Z,10.10
2023-03-18T02:23:49.182Z,9.27
2023-03-18T02:26:43.940Z,10.23
2023-03-18T02:29:34.736Z,10.00
2023-03-18T02:32:21.461Z,9.75
2023-03-18T02:35:09.768Z,10.73
2023-03-18T02:37:55.039Z,10.48
2023-03-18T02:40:41.852Z,9.93
2023-03-18T02:43:30.483Z,10.43
2023-03-18T02:46:23.429Z,10.80
2023-03-18T02:49:09.346Z,11.30
2023-03-18T02:51:55.449Z,10.57
2023-03-18T02:54:41.358Z,13.00
2023-03-18T02:57:27.024Z,12.25
2023-03-18T03:00:13.663Z,11.52
2023-03-18T03:02:59.636Z,11.45
2023-03-18T03:05:45.381Z,11.27
2023-03-18T03:08:31.027Z,11.38
2023-03-18T03:11:17.256Z,10.98
2023-03-18T03:14:11.826Z,12.10
2023-03-18T03:18:07.251Z,11.13
2023-03-18T03:20:53.449Z,13.23
2023-03-18T03:23:39.312Z,12.00
2023-03-18T03:26:24.842Z,11.73
2023-03-18T03:29:10.408Z,12.30
2023-03-18T03:31:55.761Z,11.15
2023-03-18T03:34:41.722Z,11.68
2023-03-18T03:37:27.862Z,10.35
2023-03-18T03:40:16.041Z,11.02
2023-03-18T03:43:01.799Z,12.40
2023-03-18T03:45:47.157Z,11.38
2023-03-18T03:48:32.731Z,10.70
2023-03-18T03:51:18.156Z,11.65
2023-03-18T03:54:04.030Z,11.70
2023-03-18T03:56:49.674Z,11.10
2023-03-18T03:59:35.256Z,10.85
2023-03-18T04:02:23.679Z,11.18
2023-03-18T04:05:10.528Z,11.82
2023-03-18T04:07:59.894Z,11.05
2023-03-18T04:10:45.298Z,11.77
2023-03-18T04:13:31.196Z,12.70
2023-03-18T04:16:17.256Z,12.73
2023-03-18T04:19:02.587Z,12.60
2023-03-18T04:21:48.144Z,11.70
2023-03-18T04:24:33.751Z,11.02
2023-03-18T04:27:19.592Z,11.07
2023-03-18T04:30:09.548Z,11.95
2023-03-18T04:32:55.509Z,10.68
2023-03-18T04:35:43.632Z,11.45
2023-03-18T04:38:29.532Z,11.63
2023-03-18T04:41:15.483Z,11.55
2023-03-18T04:44:01.473Z,11.70
2023-03-18T04:46:47.051Z,10.25
2023-03-18T04:49:32.620Z,10.40
2023-03-18T04:52:18.243Z,9.23
2023-03-18T04:55:03.977Z,9.82
2023-03-18T04:57:50.554Z,9.52
2023-03-18T05:00:36.751Z,9.25
2023-03-18T05:03:23.699Z,7.95
2023-03-18T05:06:11.124Z,8.05
2023-03-18T05:08:57.231Z,7.97
2023-03-18T05:11:42.723Z,8.52
2023-03-18T05:14:28.986Z,7.75
2023-03-18T05:17:17.804Z,7.68
2023-03-18T05:20:04.364Z,8.07
2023-03-18T05:22:49.791Z,7.25
2023-03-18T05:25:35.455Z,8.68
2023-03-18T05:28:21.628Z,10.27
2023-03-18T05:31:07.518Z,8.63
2023-03-18T05:33:53.072Z,10.15
2023-03-18T05:36:38.334Z,8.30
2023-03-18T05:39:23.753Z,8.93
2023-03-18T05:42:09.587Z,8.88
2023-03-18T05:44:56.923Z,9.60
2023-03-18T05:47:42.547Z,10.27
2023-03-18T05:50:38.446Z,11.38
2023-03-18T05:53:23.970Z,11.30
2023-03-18T05:56:09.479Z,11.25
2023-03-18T05:58:54.836Z,10.88
2023-03-18T06:01:41.252Z,9.95
2023-03-18T06:04:27.201Z,11.00
2023-03-18T06:07:13.508Z,10.05
2023-03-18T06:09:58.934Z,9.18
2023-03-18T06:12:44.970Z,9.80
2023-03-18T06:15:30.702Z,7.82
2023-03-18T06:18:17.138Z,8.25
2023-03-18T06:21:02.710Z,8.00
2023-03-18T06:23:48.106Z,8.85
2023-03-18T06:26:33.529Z,7.90
2023-03-18T06:29:20.002Z,7.35
2023-03-18T06:32:07.306Z,7.55
2023-03-18T06:34:53.644Z,6.63
2023-03-18T06:37:40.145Z,5.38
2023-03-18T06:40:25.873Z,5.75
2023-03-18T06:43:12.476Z,5.00
2023-03-18T06:45:59.549Z,4.95
2023-03-18T06:48:46.083Z,5.13
2023-03-18T06:51:33.576Z,5.47
2023-03-18T06:54:19.322Z,5.50
2023-03-18T06:57:04.443Z,4.40
2023-03-18T06:59:50.741Z,4.68
2023-03-18T07:02:39.442Z,5.07
2023-03-18T07:05:24.853Z,5.18
2023-03-18T07:08:10.826Z,4.85
2023-03-18T07:10:57.693Z,4.20
2023-03-18T07:13:44.253Z,4.70
2023-03-18T07:16:30.872Z,4.78
2023-03-18T07:19:17.864Z,4.53
2023-03-18T07:22:03.294Z,4.95
2023-03-18T07:24:48.928Z,4.72
2023-03-18T07:27:34.715Z,5.90
2023-03-18T07:30:21.321Z,5.13
2023-03-18T07:33:07.038Z,5.20
2023-03-18T07:35:52.629Z,5.03
2023-03-18T07:38:38.380Z,4.97
2023-03-18T07:41:23.855Z,4.95
2023-03-18T07:44:09.586Z,4.35
2023-03-18T07:46:55.593Z,4.82
2023-03-18T07:49:41.684Z,4.95
2023-03-18T07:52:27.519Z,4.57
2023-03-18T07:55:13.408Z,3.60
2023-03-18T07:57:59.660Z,2.80
2023-03-18T08:00:45.032Z,2.50
2023-03-18T08:03:30.696Z,2.92
2023-03-18T08:06:18.529Z,2.60
2023-03-18T08:09:05.578Z,2.63
2023-03-18T08:11:51.121Z,2.30
2023-03-18T08:14:37.316Z,2.60
2023-03-18T08:17:23.278Z,2.33
2023-03-18T08:20:09.787Z,2.55
2023-03-18T08:22:56.070Z,1.42
2023-03-18T08:25:43.198Z,2.08
2023-03-18T08:28:28.800Z,1.58
2023-03-18T08:31:14.383Z,1.33
2023-03-18T08:34:00.620Z,1.70
2023-03-18T08:36:46.313Z,1.50
2023-03-18T08:39:32.282Z,1.35
2023-03-18T08:42:19.085Z,1.95
2023-03-18T08:45:05.619Z,1.88
2023-03-18T08:47:51.748Z,1.40
2023-03-18T08:50:37.449Z,1.58
2023-03-18T08:53:22.929Z,1.52
2023-03-18T08:56:08.893Z,1.15
2023-03-18T08:58:54.627Z,1.38
2023-03-18T09:01:40.366Z,1.50
2023-03-18T09:04:26.164Z,1.38
2023-03-18T09:07:13.291Z,2.25
2023-03-18T09:09:58.799Z,1.60
2023-03-18T09:12:45.744Z,1.50
2023-03-18T09:15:31.727Z,2.05
2023-03-18T09:18:18.465Z,1.60
2023-03-18T09:21:05.064Z,1.92
2023-03-18T09:23:52.806Z,2.10
2023-03-18T09:26:39.369Z,1.50
2023-03-18T09:29:25.340Z,1.63
2023-03-18T09:32:11.419Z,1.30
2023-03-18T09:34:56.650Z,1.50
2023-03-18T09:37:42.282Z,1.65
2023-03-18T09:40:34.809Z,1.70
2023-03-18T09:43:59.516Z,1.52
2023-03-18T09:47:22.652Z,1.67
2023-03-18T09:50:24.255Z,2.05
2023-03-18T09:53:18.695Z,1.80
2023-03-18T09:56:25.033Z,1.77
2023-03-18T09:59:22.863Z,1.70
2023-03-18T10:02:25.783Z,1.45
2023-03-18T10:05:32.662Z,1.67
2023-03-18T10:08:52.764Z,1.58
2023-03-18T10:11:38.406Z,1.30
2023-03-18T10:14:26.918Z,1.17
2023-03-18T10:17:18.381Z,1.70
2023-03-18T10:20:34.478Z,1.10
2023-03-18T10:23:31.039Z,1.17
2023-03-18T10:26:39.139Z,1.40
2023-03-18T10:29:37.907Z,0.90
2023-03-18T10:32:46.468Z,1.02
2023-03-18T10:35:59.517Z,0.93
2023-03-18T10:38:50.756Z,1.17
2023-03-18T10:41:40.285Z,0.68
2023-03-18T10:44:36.721Z,1.13
2023-03-18T10:47:28.172Z,1.10
2023-03-18T10:50:22.202Z,1.17
2023-03-18T10:56:07.336Z,0.77
2023-03-18T10:58:52.978Z,0.88
2023-03-18T11:01:39.393Z,0.85
2023-03-18T11:04:28.439Z,1.00
2023-03-18T11:07:18.958Z,1.10
2023-03-18T11:10:15.264Z,1.05
2023-03-18T11:13:06.429Z,1.02
2023-03-18T11:15:56.722Z,0.70
2023-03-18T11:18:46.198Z,1.27
2023-03-18T11:21:32.021Z,0.60
2023-03-18T11:24:36.405Z,0.80
2023-03-18T11:27:26.651Z,0.50
2023-03-18T11:30:21.449Z,0.50
2023-03-18T11:33:17.385Z,0.40
2023-03-18T11:36:07.435Z,1.15
2023-03-18T11:39:04.206Z,0.47
2023-03-18T11:41:49.869Z,0.32
2023-03-18T11:44:35.646Z,0.30
2023-03-18T11:47:30.650Z,0.70
2023-03-18T11:50:26.540Z,0.60
2023-03-18T11:53:26.055Z,0.28
2023-03-18T11:56:17.560Z,0.30
2023-03-18T11:59:32.272Z,0.30
2023-03-18T12:02:38.872Z,0.35
2023-03-18T12:05:36.736Z,0.35
2023-03-18T12:08:31.698Z,0.40
2023-03-18T12:11:55.183Z,0.43
2023-03-18T12:15:06.207Z,0.40
2023-03-18T12:18:10.450Z,0.50
2023-03-18T12:21:06.993Z,0.47
2023-03-18T12:23:56.597Z,0.60
2023-03-18T12:27:06.838Z,0.82
2023-03-18T12:30:14.518Z,0.43
2023-03-18T12:33:34.073Z,0.65
2023-03-18T12:36:50.141Z,1.20
2023-03-18T12:39:56.681Z,1.10
2023-03-18T12:43:17.741Z,0.73
2023-03-18T12:46:18.183Z,1.02
2023-03-18T12:49:19.818Z,1.00
2023-03-18T12:52:30.338Z,0.70
2023-03-18T12:55:40.069Z,0.77
2023-03-18T12:58:39.699Z,1.00
2023-03-18T13:01:51.576Z,0.63
2023-03-18T13:04:39.922Z,0.50
2023-03-18T13:07:41.672Z,0.57
2023-03-18T13:10:30.641Z,0.30
2023-03-18T13:13:21.396Z,0.50
2023-03-18T13:16:08.012Z,0.30
2023-03-18T13:18:56.141Z,0.40
2023-03-18T13:21:46.494Z,0.50
2023-03-18T13:24:42.630Z,0.40
2023-03-18T13:28:03.266Z,0.68
2023-03-18T13:30:56.518Z,0.60
2023-03-18T13:34:26.314Z,0.80
2023-03-18T13:37:34.196Z,0.43
2023-03-18T13:40:42.699Z,0.50
2023-03-18T13:43:29.644Z,0.60
2023-03-18T13:46:29.211Z,1.08
2023-03-18T13:49:21.907Z,0.70
2023-03-18T13:52:36.164Z,0.57
2023-03-18T13:55:35.188Z,0.80
2023-03-18T13:58:27.760Z,0.98
2023-03-18T14:01:28.538Z,0.80
2023-03-18T14:04:45.895Z,0.88
2023-03-18T14:07:31.819Z,0.45
2023-03-18T14:10:19.945Z,0.60
2023-03-18T14:13:27.716Z,0.50
2023-03-18T14:16:14.927Z,0.70
2023-03-18T14:19:18.133Z,0.68
2023-03-18T14:22:13.725Z,0.80
2023-03-18T14:25:14.217Z,1.08
2023-03-18T14:28:16.667Z,0.98
2023-03-18T14:31:34.404Z,0.88
2023-03-18T14:34:19.958Z,1.15
2023-03-18T14:37:25.641Z,0.88
2023-03-18T14:40:17.723Z,0.88
2023-03-18T14:43:10.913Z,0.90
2023-03-18T14:46:03.405Z,1.27
2023-03-18T14:48:55.384Z,0.88
2023-03-18T14:51:41.399Z,0.80
2023-03-18T14:54:30.005Z,0.90
2023-03-18T14:57:16.269Z,0.88
2023-03-18T15:00:03.120Z,1.00
2023-03-18T15:03:01.532Z,1.15
2023-03-18T15:05:47.712Z,1.00
2023-03-18T15:08:47.476Z,1.63
2023-03-18T15:11:51.945Z,0.82
2023-03-18T15:14:37.952Z,0.98
2023-03-18T15:17:27.458Z,1.00
2023-03-18T15:20:13.632Z,1.00
2023-03-18T15:22:59.786Z,1.10
2023-03-18T15:25:45.437Z,0.95
2023-03-18T15:28:31.665Z,1.02
2023-03-18T15:31:32.298Z,0.70
2023-03-18T15:34:27.309Z,0.75
2023-03-18T15:37:31.729Z,0.85
2023-03-18T15:40:31.066Z,1.00
2023-03-18T15:43:19.140Z,0.80
2023-03-18T15:46:30.990Z,0.70
2023-03-18T15:49:17.639Z,0.73
2023-03-18T15:52:03.496Z,0.70
2023-03-18T15:54:49.111Z,0.70
2023-03-18T15:57:40.278Z,0.80
2023-03-18T16:00:26.485Z,0.60
2023-03-18T16:03:34.585Z,0.50
2023-03-18T16:06:22.725Z,0.90
2023-03-18T16:09:22.698Z,0.80
2023-03-18T16:12:31.113Z,0.68
2023-03-18T16:15:22.373Z,0.52
2023-03-18T16:18:10.337Z,0.70
2023-03-18T16:20:57.387Z,0.95
2023-03-18T16:23:43.271Z,0.50
2023-03-18T16:26:28.696Z,0.75
2023-03-18T16:29:16.749Z,0.60
2023-03-18T16:32:03.292Z,0.50
2023-03-18T16:34:49.075Z,0.50
2023-03-18T16:37:34.961Z,0.55
2023-03-18T16:40:26.363Z,0.65
2023-03-18T16:43:22.979Z,0.85
2023-03-18T16:46:15.044Z,0.45
2023-03-18T16:49:02.954Z,0.63
2023-03-18T16:51:50.528Z,0.93
2023-03-18T16:54:36.872Z,1.15
2023-03-18T16:57:23.855Z,0.63
2023-03-18T17:00:23.629Z,0.80
2023-03-18T17:03:14.410Z,0.50
2023-03-18T17:06:00.441Z,0.70
2023-03-18T17:08:45.809Z,1.08
2023-03-18T17:11:31.472Z,1.05
2023-03-18T17:14:34.769Z,1.10
2023-03-18T17:17:33.099Z,0.40
2023-03-18T17:20:21.203Z,0.68
2023-03-18T17:23:06.512Z,0.98
2023-03-18T17:25:59.336Z,0.80
2023-03-18T17:28:47.659Z,0.65
2023-03-18T17:31:34.391Z,0.90
2023-03-18T17:34:20.252Z,1.13
2023-03-18T17:37:05.636Z,0.80
2023-03-18T17:39:51.124Z,0.85
2023-03-18T17:42:36.991Z,1.10
2023-03-18T17:45:33.413Z,0.93
2023-03-18T17:48:23.861Z,1.00
2023-03-18T17:51:16.941Z,1.00
2023-03-18T17:54:05.712Z,1.23
2023-03-18T17:56:52.689Z,1.05
2023-03-18T17:59:37.939Z,1.00
2023-03-18T18:02:24.073Z,1.33
2023-03-18T18:05:21.923Z,1.20
2023-03-18T18:08:15.593Z,1.10
2023-03-18T18:11:15.056Z,1.88
2023-03-18T18:14:22.662Z,1.40
2023-03-18T18:17:15.904Z,1.65
2023-03-18T18:20:01.576Z,1.40
2023-03-18T18:22:51.723Z,1.85
2023-03-18T18:25:37.499Z,1.58
2023-03-18T18:28:27.083Z,2.00
2023-03-18T18:31:14.463Z,1.80
2023-03-18T18:34:00.114Z,1.83
2023-03-18T18:36:45.648Z,1.75
2023-03-18T18:39:31.149Z,2.03
2023-03-18T18:42:16.697Z,2.28
2023-03-18T18:45:02.504Z,2.15
2023-03-18T18:47:47.661Z,2.58
2023-03-18T18:50:35.383Z,2.42
2023-03-18T18:53:27.341Z,2.42
2023-03-18T18:56:14.249Z,2.30
2023-03-18T18:59:00.601Z,2.63
2023-03-18T19:01:46.209Z,2.58
2023-03-18T19:04:31.918Z,2.58
2023-03-18T19:07:18.152Z,2.67
2023-03-18T19:10:04.785Z,3.08
2023-03-18T19:12:50.615Z,3.53
2023-03-18T19:15:36.438Z,4.55
2023-03-18T19:18:26.618Z,4.55
2023-03-18T19:21:12.167Z,3.95
2023-03-18T19:23:58.333Z,3.63
2023-03-18T19:26:43.968Z,4.60
2023-03-18T19:29:30.578Z,4.53
2023-03-18T19:32:20.656Z,4.05
2023-03-18T19:35:06.431Z,3.67
2023-03-18T19:37:52.371Z,4.25
2023-03-18T19:40:37.817Z,3.88
2023-03-18T19:43:24.327Z,3.55
2023-03-18T19:46:27.844Z,4.32
2023-03-18T19:49:18.130Z,4.10
2023-03-18T19:52:11.614Z,4.00
2023-03-18T19:54:57.654Z,4.13
2023-03-18T19:57:45.017Z,4.35
2023-03-18T20:00:30.845Z,4.72
2023-03-18T20:03:18.539Z,4.13
2023-03-18T20:06:04.026Z,3.92
2023-03-18T20:08:50.566Z,3.45
2023-03-18T20:11:36.037Z,3.97
2023-03-18T20:14:30.586Z,4.07
2023-03-18T20:17:25.265Z,4.82
2023-03-18T20:20:32.147Z,3.60
2023-03-18T20:23:23.967Z,3.28
2023-03-18T20:26:10.245Z,4.47
2023-03-18T20:28:56.216Z,3.80
2023-03-18T20:31:41.877Z,5.72
2023-03-18T20:34:27.639Z,3.20
2023-03-18T20:37:34.638Z,3.90
2023-03-18T20:40:29.092Z,3.05
2023-03-18T20:43:19.532Z,4.03
2023-03-18T20:46:05.105Z,3.60
2023-03-18T20:48:50.813Z,3.35
2023-03-18T20:51:40.728Z,3.50
2023-03-18T20:54:30.288Z,4.63
2023-03-18T20:57:15.843Z,2.58
2023-03-18T21:00:01.779Z,3.72
2023-03-18T21:02:47.890Z,3.10
2023-03-18T21:05:33.448Z,2.63
2023-03-18T21:08:19.363Z,2.92
2023-03-18T21:11:05.356Z,2.85
2023-03-18T21:13:51.065Z,2.90
2023-03-18T21:16:38.048Z,3.47
2023-03-18T21:19:23.829Z,3.45
2023-03-18T21:22:13.714Z,2.20
2023-03-18T21:24:59.480Z,2.75
2023-03-18T21:27:45.015Z,2.50
2023-03-18T21:30:30.629Z,3.40
2023-03-18T21:33:36.752Z,2.80
2023-03-18T21:36:22.548Z,3.17
2023-03-18T21:39:08.330Z,3.28
2023-03-18T21:41:57.530Z,2.53
2023-03-18T21:44:43.022Z,2.88
2023-03-18T21:47:28.386Z,2.30
2023-03-18T21:50:19.510Z,2.53
2023-03-18T21:53:07.189Z,2.90
2023-03-18T21:55:53.315Z,2.30
2023-03-18T21:58:38.616Z,3.03
2023-03-18T22:01:31.062Z,2.88
2023-03-18T22:04:16.938Z,3.03
2023-03-18T22:07:03.072Z,3.33
2023-03-18T22:09:48.840Z,2.67
2023-03-18T22:12:34.884Z,2.88
2023-03-18T22:15:38.430Z,2.60
2023-03-18T22:21:23.230Z,3.33
2023-03-18T22:24:14.587Z,3.05
2023-03-18T22:27:00.242Z,2.45
2023-03-18T22:29:46.037Z,2.40
2023-03-18T22:32:43.546Z,2.97
2023-03-18T22:35:30.789Z,2.47
2023-03-18T22:38:18.797Z,2.15
2023-03-18T22:41:04.715Z,2.75
2023-03-18T22:43:51.346Z,2.83
2023-03-18T22:46:36.754Z,2.25
2023-03-18T22:49:22.362Z,2.58
2023-03-18T22:52:25.410Z,2.60
2023-03-18T22:55:30.315Z,2.72
2023-03-18T22:58:30.001Z,3.03
2023-03-18T23:01:20.838Z,3.05
2023-03-18T23:04:09.065Z,2.58
2023-03-18T23:06:54.830Z,2.33
2023-03-18T23:09:54.240Z,3.10
2023-03-18T23:12:42.461Z,3.08
2023-03-18T23:15:27.730Z,3.03
2023-03-18T23:18:16.220Z,4.07
2023-03-18T23:21:02.174Z,2.90
2023-03-18T23:23:48.485Z,3.80
2023-03-18T23:26:34.192Z,2.88
2023-03-18T23:29:19.725Z,3.05
2023-03-18T23:32:05.930Z,3.47
2023-03-18T23:34:51.822Z,2.90
2023-03-18T23:37:37.118Z,3.65
2023-03-18T23:40:23.203Z,3.40
2023-03-18T23:43:09.238Z,2.80
2023-03-18T23:45:54.984Z,3.78
2023-03-18T23:48:40.812Z,3.47
2023-03-18T23:51:26.154Z,3.22
2023-03-18T23:54:11.886Z,3.08
2023-03-18T23:56:57.501Z,2.88
2023-03-18T23:59:43.099Z,2.80
